Time;durP1;ratioP1;P1;durP2;ratioP2;P2;SDS_P1;SDS_P2;PMS_P1;PMS_P2;Temp;Humidity;BMP_temperature;BMP_pressure;BME280_temperature;BME280_humidity;BME280_pressure;Samples;Min_cycle;Max_cycle;Signal;HPM_P1;HPM_P2
2023/10/05 00:04:26;;;;;;;10.95;3.67;;;;;;;;;;4952127;29;20054;-68
2023/10/05 00:06:56;;;;;;;9.27;3.72;;;;;;;;;;4952515;29;20035;-67
2023/10/05 00:09:24;;;;;;;9.07;3.67;;;;;;;;;;4955128;28;20039;-66
2023/10/05 00:11:53;;;;;;;8.80;3.80;;;;;;;;;;4955884;29;20042;-68
2023/10/05 00:14:19;;;;;;;9.65;3.63;;;;;;;;;;4955682;29;20119;-65
2023/10/05 00:16:47;;;;;;;9.50;3.78;;;;;;;;;;4955951;29;20138;-67
2023/10/05 00:19:15;;;;;;;9.35;3.85;;;;;;;;;;4955540;29;20027;-65
2023/10/05 00:21:51;;;;;;;8.75;3.53;;;;;;;;;;4955637;29;20035;-66
2023/10/05 00:24:29;;;;;;;7.95;3.75;;;;;;;;;;4955335;29;20059;-66
2023/10/05 00:26:56;;;;;;;9.48;3.95;;;;;;;;;;4942530;29;20054;-66
2023/10/05 00:29:47;;;;;;;13.80;3.92;;;;;;;;;;4957739;28;20358;-68
2023/10/05 00:32:14;;;;;;;8.52;3.90;;;;;;;;;;4972133;28;20141;-68
2023/10/05 00:34:41;;;;;;;15.32;4.60;;;;;;;;;;4976637;28;20037;-67
2023/10/05 00:37:06;;;;;;;12.60;3.83;;;;;;;;;;4976895;28;20047;-66
2023/10/05 00:39:32;;;;;;;10.75;3.67;;;;;;;;;;4976959;28;20027;-64
2023/10/05 00:44:29;;;;;;;8.20;3.60;;;;;;;;;;4976973;28;20034;-64
2023/10/05 00:46:55;;;;;;;11.02;3.80;;;;;;;;;;4975373;28;20031;-64
2023/10/05 00:49:23;;;;;;;7.95;3.22;;;;;;;;;;4976708;28;20492;-64
2023/10/05 00:54:30;;;;;;;10.02;3.65;;;;;;;;;;4976567;28;20035;-64
2023/10/05 00:56:57;;;;;;;8.50;3.33;;;;;;;;;;4976591;28;20018;-65
2023/10/05 00:59:22;;;;;;;10.48;3.78;;;;;;;;;;4976632;28;20049;-64
2023/10/05 01:04:26;;;;;;;9.95;4.05;;;;;;;;;;4976457;28;20432;-65
2023/10/05 01:06:56;;;;;;;18.25;3.78;;;;;;;;;;4976426;28;20038;-64
2023/10/05 01:14:50;;;;;;;10.88;3.80;;;;;;;;;;4976247;28;20027;-65
2023/10/05 01:17:23;;;;;;;12.13;3.65;;;;;;;;;;4976001;28;20097;-64
2023/10/05 01:19:59;;;;;;;9.43;3.50;;;;;;;;;;4975327;28;20066;-65
2023/10/05 01:22:40;;;;;;;11.88;3.90;;;;;;;;;;4976196;28;20035;-65
2023/10/05 01:25:13;;;;;;;7.93;3.55;;;;;;;;;;4975852;28;20507;-64
2023/10/05 01:27:43;;;;;;;13.95;3.60;;;;;;;;;;4976067;28;20031;-64
2023/10/05 01:30:12;;;;;;;12.30;4.17;;;;;;;;;;4976083;28;20468;-67
2023/10/05 01:32:41;;;;;;;10.30;3.42;;;;;;;;;;4993461;28;20034;-67
2023/10/05 01:35:12;;;;;;;9.82;4.28;;;;;;;;;;4995328;28;20034;-68
2023/10/05 01:37:38;;;;;;;5.68;2.47;;;;;;;;;;4995331;28;20031;-68
2023/10/05 01:40:14;;;;;;;9.07;3.50;;;;;;;;;;4992171;28;20124;-68
2023/10/05 01:42:46;;;;;;;12.27;3.50;;;;;;;;;;4975703;28;20523;-68
2023/10/05 01:48:14;;;;;;;9.73;3.67;;;;;;;;;;4934951;29;20130;-66
2023/10/05 01:50:40;;;;;;;11.55;3.65;;;;;;;;;;4934961;29;20248;-66
2023/10/05 01:53:14;;;;;;;6.80;3.10;;;;;;;;;;4935021;29;20126;-68
2023/10/05 01:55:43;;;;;;;8.13;3.25;;;;;;;;;;4934814;29;20501;-68
2023/10/05 01:58:13;;;;;;;12.18;4.00;;;;;;;;;;4934931;29;20040;-68
2023/10/05 02:00:41;;;;;;;7.22;3.30;;;;;;;;;;4934553;29;20110;-68
2023/10/05 02:03:08;;;;;;;8.73;2.80;;;;;;;;;;4934870;29;20035;-67
2023/10/05 02:05:36;;;;;;;11.40;3.25;;;;;;;;;;4934751;29;20103;-67
2023/10/05 02:08:03;;;;;;;11.25;3.42;;;;;;;;;;4934694;29;20128;-65
2023/10/05 02:10:32;;;;;;;9.55;3.53;;;;;;;;;;4934497;29;20604;-67
2023/10/05 02:13:00;;;;;;;9.85;3.30;;;;;;;;;;4934515;29;20031;-69
2023/10/05 02:15:29;;;;;;;8.07;3.00;;;;;;;;;;4934295;29;20036;-66
2023/10/05 02:18:13;;;;;;;14.40;3.50;;;;;;;;;;4934621;29;20046;-68
2023/10/05 02:20:42;;;;;;;7.32;3.05;;;;;;;;;;4934402;29;20584;-67
2023/10/05 02:23:24;;;;;;;10.60;3.90;;;;;;;;;;4944564;28;20053;-66
2023/10/05 02:26:07;;;;;;;10.70;4.20;;;;;;;;;;4974761;28;20118;-68
2023/10/05 02:28:33;;;;;;;8.30;2.97;;;;;;;;;;4974702;28;20372;-65
2023/10/05 02:31:00;;;;;;;7.90;3.28;;;;;;;;;;4979040;28;20491;-67
2023/10/05 02:33:31;;;;;;;8.23;2.85;;;;;;;;;;4994133;28;20027;-68
2023/10/05 02:36:40;;;;;;;10.20;3.28;;;;;;;;;;4994309;28;20022;-68
2023/10/05 02:38:53;;;;;;;11.70;3.35;;;;;;;;;;4986092;28;20034;-68
2023/10/05 02:41:24;;;;;;;8.23;3.55;;;;;;;;;;4980895;28;20110;-68
2023/10/05 02:43:54;;;;;;;9.25;3.10;;;;;;;;;;4974415;28;20484;-66
2023/10/05 02:46:20;;;;;;;12.18;3.15;;;;;;;;;;4974597;28;20030;-69
2023/10/05 02:48:46;;;;;;;9.25;3.13;;;;;;;;;;4974654;28;20023;-64
2023/10/05 02:51:13;;;;;;;14.15;3.75;;;;;;;;;;4974568;28;20039;-66
2023/10/05 02:53:44;;;;;;;11.77;3.28;;;;;;;;;;4974374;28;20019;-64
2023/10/05 02:56:28;;;;;;;7.75;3.50;;;;;;;;;;4974497;28;20055;-64
2023/10/05 02:58:56;;;;;;;9.43;2.92;;;;;;;;;;4974221;28;20062;-66
2023/10/05 03:01:24;;;;;;;7.68;3.25;;;;;;;;;;4974373;28;20035;-66
2023/10/05 03:03:51;;;;;;;9.60;3.28;;;;;;;;;;4974224;28;20073;-66
2023/10/05 03:06:17;;;;;;;6.72;3.03;;;;;;;;;;4974254;28;20538;-68
2023/10/05 03:08:44;;;;;;;10.50;3.70;;;;;;;;;;4974370;28;20026;-65
2023/10/05 03:11:12;;;;;;;9.27;3.38;;;;;;;;;;4974228;28;20046;-66
2023/10/05 03:13:38;;;;;;;7.20;3.10;;;;;;;;;;4973962;28;20113;-67
2023/10/05 03:16:09;;;;;;;8.45;3.10;;;;;;;;;;4974242;28;20077;-65
2023/10/05 03:18:40;;;;;;;8.23;3.42;;;;;;;;;;4974181;28;20030;-67
2023/10/05 03:21:13;;;;;;;9.50;3.03;;;;;;;;;;4974184;28;20031;-66
2023/10/05 03:23:41;;;;;;;11.27;4.75;;;;;;;;;;4973949;28;20082;-65
2023/10/05 03:26:07;;;;;;;10.65;3.85;;;;;;;;;;4973888;28;20455;-64
2023/10/05 03:28:35;;;;;;;9.50;3.15;;;;;;;;;;4973964;28;20039;-65
2023/10/05 03:31:06;;;;;;;8.38;3.00;;;;;;;;;;4978639;28;20034;-67
2023/10/05 03:33:35;;;;;;;14.07;3.80;;;;;;;;;;4993422;28;20068;-65
2023/10/05 03:36:06;;;;;;;9.00;2.95;;;;;;;;;;4993422;28;20542;-65
2023/10/05 03:38:33;;;;;;;9.60;3.25;;;;;;;;;;4993429;28;20033;-65
2023/10/05 03:41:08;;;;;;;8.15;3.20;;;;;;;;;;4982651;28;20030;-65
2023/10/05 03:43:34;;;;;;;8.60;3.00;;;;;;;;;;4975513;28;20391;-65
2023/10/05 03:46:08;;;;;;;8.35;3.80;;;;;;;;;;4978050;28;20114;-64
2023/10/05 03:48:41;;;;;;;8.77;3.33;;;;;;;;;;4978013;28;20395;-64
2023/10/05 03:51:15;;;;;;;8.35;3.20;;;;;;;;;;4976665;28;20438;-64
2023/10/05 03:53:43;;;;;;;10.65;3.53;;;;;;;;;;4977691;28;20031;-62
2023/10/05 03:56:12;;;;;;;16.27;3.60;;;;;;;;;;4977445;28;20544;-64
2023/10/05 03:58:39;;;;;;;7.43;2.78;;;;;;;;;;4977602;28;20073;-63
2023/10/05 04:01:05;;;;;;;13.52;3.55;;;;;;;;;;4977386;28;20034;-63
2023/10/05 04:03:31;;;;;;;9.60;3.33;;;;;;;;;;4977528;28;20022;-64
2023/10/05 04:05:58;;;;;;;11.30;4.32;;;;;;;;;;4977511;28;20033;-62
2023/10/05 04:08:23;;;;;;;9.13;3.25;;;;;;;;;;4977420;28;20034;-63
2023/10/05 04:10:51;;;;;;;10.82;3.10;;;;;;;;;;4976900;28;20019;-66
2023/10/05 04:13:17;;;;;;;9.40;3.55;;;;;;;;;;4977349;28;20037;-64
2023/10/05 04:15:43;;;;;;;10.45;3.72;;;;;;;;;;4977111;28;20056;-64
2023/10/05 04:18:14;;;;;;;10.63;3.67;;;;;;;;;;4977052;28;20113;-65
2023/10/05 04:20:43;;;;;;;8.13;2.80;;;;;;;;;;4977200;28;20035;-64
2023/10/05 04:23:10;;;;;;;9.05;3.20;;;;;;;;;;4977050;28;20066;-64
2023/10/05 04:25:36;;;;;;;9.63;2.92;;;;;;;;;;4976568;28;20456;-66
2023/10/05 04:28:01;;;;;;;11.85;3.83;;;;;;;;;;4977133;28;20105;-66
2023/10/05 04:30:27;;;;;;;17.27;3.78;;;;;;;;;;4977089;28;20407;-66
2023/10/05 04:32:53;;;;;;;11.45;3.10;;;;;;;;;;4996536;28;20026;-65
2023/10/05 04:35:28;;;;;;;11.27;3.67;;;;;;;;;;4996416;28;20133;-64
2023/10/05 04:37:54;;;;;;;7.68;2.72;;;;;;;;;;4996293;28;20030;-65
2023/10/05 04:40:24;;;;;;;7.05;3.15;;;;;;;;;;4990838;28;20047;-66
2023/10/05 04:42:52;;;;;;;9.07;3.13;;;;;;;;;;4976718;28;20113;-65
2023/10/05 04:45:20;;;;;;;9.20;2.65;;;;;;;;;;4976921;28;20361;-64
2023/10/05 04:47:48;;;;;;;7.75;2.88;;;;;;;;;;4976822;28;20031;-63
2023/10/05 04:50:15;;;;;;;9.13;3.00;;;;;;;;;;4976583;28;20037;-64
2023/10/05 04:52:41;;;;;;;8.95;3.10;;;;;;;;;;4976628;28;20030;-65
2023/10/05 04:55:22;;;;;;;10.70;3.50;;;;;;;;;;4974998;28;20122;-68
2023/10/05 04:57:55;;;;;;;9.93;3.70;;;;;;;;;;4976438;28;20054;-66
2023/10/05 05:03:05;;;;;;;10.40;3.42;;;;;;;;;;4976356;28;20444;-68
2023/10/05 05:08:14;;;;;;;15.80;3.13;;;;;;;;;;4976061;28;20042;-68
2023/10/05 05:10:42;;;;;;;6.80;2.97;;;;;;;;;;4976142;28;20027;-68
2023/10/05 05:13:07;;;;;;;8.55;2.97;;;;;;;;;;4976113;28;20494;-68
2023/10/05 05:15:38;;;;;;;9.55;2.80;;;;;;;;;;4976096;28;20110;-65
2023/10/05 05:18:04;;;;;;;9.00;2.83;;;;;;;;;;4976290;28;20031;-68
2023/10/05 05:20:31;;;;;;;11.05;2.88;;;;;;;;;;4976074;28;20046;-68
2023/10/05 05:22:56;;;;;;;8.02;3.10;;;;;;;;;;4975583;28;20101;-69
2023/10/05 05:25:22;;;;;;;9.32;3.08;;;;;;;;;;4975762;28;20031;-65
2023/10/05 05:27:48;;;;;;;10.23;3.08;;;;;;;;;;4976029;28;20061;-68
2023/10/05 05:30:24;;;;;;;9.10;3.08;;;;;;;;;;4975780;28;20154;-67
2023/10/05 05:32:56;;;;;;;7.03;2.70;;;;;;;;;;4994950;28;20113;-68
2023/10/05 05:35:22;;;;;;;6.18;3.13;;;;;;;;;;4995110;28;20610;-68
2023/10/05 05:37:48;;;;;;;9.80;3.35;;;;;;;;;;4994863;28;20037;-68
2023/10/05 05:40:13;;;;;;;9.18;2.80;;;;;;;;;;4990792;28;20018;-67
2023/10/05 05:42:40;;;;;;;9.68;2.80;;;;;;;;;;4975518;28;20038;-67
2023/10/05 05:45:14;;;;;;;10.70;2.40;;;;;;;;;;4975588;28;20023;-68
2023/10/05 05:47:40;;;;;;;9.18;2.83;;;;;;;;;;4974286;28;20105;-65
2023/10/05 05:50:08;;;;;;;9.25;3.05;;;;;;;;;;4975497;28;20058;-68
2023/10/05 05:52:34;;;;;;;10.10;2.80;;;;;;;;;;4975154;28;20023;-68
2023/10/05 05:55:09;;;;;;;8.75;2.72;;;;;;;;;;4975388;28;20027;-62
2023/10/05 05:57:35;;;;;;;9.02;2.85;;;;;;;;;;4975277;28;20018;-64
2023/10/05 06:00:10;;;;;;;12.57;3.30;;;;;;;;;;4975515;28;20428;-64
2023/10/05 06:02:39;;;;;;;11.43;3.40;;;;;;;;;;4975430;28;20033;-62
2023/10/05 06:05:08;;;;;;;9.18;3.10;;;;;;;;;;4975037;28;20031;-64
2023/10/05 06:07:35;;;;;;;9.55;3.10;;;;;;;;;;4974621;28;20058;-65
2023/10/05 06:10:01;;;;;;;10.48;2.70;;;;;;;;;;4975120;28;20027;-64
2023/10/05 06:12:26;;;;;;;7.65;3.08;;;;;;;;;;4975244;28;20447;-62
2023/10/05 06:14:52;;;;;;;8.32;2.50;;;;;;;;;;4974865;28;20468;-62
2023/10/05 06:17:19;;;;;;;6.78;2.38;;;;;;;;;;4974852;28;20030;-63
2023/10/05 06:19:47;;;;;;;10.88;3.08;;;;;;;;;;4975070;28;20492;-64
2023/10/05 06:22:13;;;;;;;6.47;2.88;;;;;;;;;;4959175;28;20042;-64
2023/10/05 06:24:42;;;;;;;8.38;2.50;;;;;;;;;;4987096;28;20395;-63
2023/10/05 06:27:07;;;;;;;9.02;2.70;;;;;;;;;;4989314;28;20029;-63
2023/10/05 06:29:36;;;;;;;6.82;2.47;;;;;;;;;;4985610;28;20022;-64
2023/10/05 06:32:04;;;;;;;7.47;2.60;;;;;;;;;;4978623;28;20080;-63
2023/10/05 06:34:30;;;;;;;6.90;2.45;;;;;;;;;;4981946;28;20023;-64
2023/10/05 06:36:55;;;;;;;8.25;2.58;;;;;;;;;;4973472;28;20388;-63
2023/10/05 06:39:27;;;;;;;6.50;2.58;;;;;;;;;;4973690;28;20030;-64
2023/10/05 06:41:53;;;;;;;7.38;2.60;;;;;;;;;;4974680;28;20062;-63
2023/10/05 06:44:18;;;;;;;6.90;2.63;;;;;;;;;;4975993;28;20507;-64
2023/10/05 06:46:44;;;;;;;12.40;3.35;;;;;;;;;;4974495;28;20054;-63
2023/10/05 06:49:09;;;;;;;9.18;2.67;;;;;;;;;;4976002;28;20035;-63
2023/10/05 06:51:42;;;;;;;8.35;2.65;;;;;;;;;;4973928;28;20022;-65
2023/10/05 06:54:08;;;;;;;9.45;2.70;;;;;;;;;;4974082;28;20041;-64
2023/10/05 06:56:33;;;;;;;9.63;3.13;;;;;;;;;;4975866;28;20105;-63
2023/10/05 06:58:59;;;;;;;8.52;2.90;;;;;;;;;;4974201;28;20093;-63
2023/10/05 07:01:24;;;;;;;9.68;2.85;;;;;;;;;;4974231;28;20061;-64
2023/10/05 07:03:53;;;;;;;10.73;2.60;;;;;;;;;;4973998;28;20483;-64
2023/10/05 07:06:21;;;;;;;8.20;2.63;;;;;;;;;;4973942;28;20045;-63
2023/10/05 07:08:46;;;;;;;10.60;2.67;;;;;;;;;;4973924;28;20070;-64
2023/10/05 07:11:12;;;;;;;10.32;2.63;;;;;;;;;;4974003;28;20378;-63
2023/10/05 07:13:37;;;;;;;6.88;2.75;;;;;;;;;;4975578;28;20023;-63
2023/10/05 07:16:03;;;;;;;8.13;2.60;;;;;;;;;;4973657;28;20468;-64
2023/10/05 07:18:28;;;;;;;9.48;2.60;;;;;;;;;;4972919;28;20039;-63
2023/10/05 07:20:54;;;;;;;6.50;2.30;;;;;;;;;;4973868;28;20054;-64
2023/10/05 07:23:19;;;;;;;9.05;2.42;;;;;;;;;;4973564;28;20433;-64
2023/10/05 07:25:44;;;;;;;7.43;2.53;;;;;;;;;;4965534;28;20026;-64
2023/10/05 07:28:14;;;;;;;6.32;2.58;;;;;;;;;;4973636;28;20054;-62
2023/10/05 07:30:42;;;;;;;6.28;2.72;;;;;;;;;;4973827;28;20130;-62
2023/10/05 07:33:07;;;;;;;7.03;2.65;;;;;;;;;;4973581;28;20039;-62
2023/10/05 07:35:32;;;;;;;8.15;2.28;;;;;;;;;;4973753;28;20037;-62
2023/10/05 07:37:59;;;;;;;9.77;2.38;;;;;;;;;;4973825;28;20376;-63
2023/10/05 07:40:25;;;;;;;7.28;2.50;;;;;;;;;;4973307;28;20110;-63
2023/10/05 07:42:50;;;;;;;8.77;2.40;;;;;;;;;;4973788;28;20113;-63
2023/10/05 07:45:16;;;;;;;12.52;2.42;;;;;;;;;;4973803;28;20019;-63
2023/10/05 07:47:43;;;;;;;9.98;2.97;;;;;;;;;;4975470;28;20464;-63
2023/10/05 07:50:12;;;;;;;8.73;2.75;;;;;;;;;;4973360;28;20018;-63
2023/10/05 07:52:38;;;;;;;7.03;2.63;;;;;;;;;;4973362;28;20019;-64
2023/10/05 07:55:08;;;;;;;6.95;2.50;;;;;;;;;;4973586;28;20027;-63
2023/10/05 07:57:34;;;;;;;6.53;2.08;;;;;;;;;;4973647;28;20019;-63
2023/10/05 07:59:59;;;;;;;7.18;3.00;;;;;;;;;;4973500;28;20023;-63
2023/10/05 08:02:24;;;;;;;8.95;2.75;;;;;;;;;;4973052;28;20033;-63
2023/10/05 08:04:50;;;;;;;8.77;3.00;;;;;;;;;;4973552;28;20464;-63
2023/10/05 08:07:15;;;;;;;9.20;3.22;;;;;;;;;;4973392;28;20035;-63
2023/10/05 08:09:44;;;;;;;8.77;2.95;;;;;;;;;;4973466;28;20054;-63
2023/10/05 08:12:12;;;;;;;11.18;2.80;;;;;;;;;;4973415;28;20023;-64
2023/10/05 08:14:38;;;;;;;11.95;2.42;;;;;;;;;;4973098;28;20066;-65
2023/10/05 08:17:03;;;;;;;9.85;2.88;;;;;;;;;;4972956;28;20062;-64
2023/10/05 08:19:29;;;;;;;8.02;3.30;;;;;;;;;;4973330;28;20018;-68
2023/10/05 08:21:55;;;;;;;11.35;2.95;;;;;;;;;;4973156;28;20085;-68
2023/10/05 08:24:23;;;;;;;6.45;2.20;;;;;;;;;;4972667;28;20038;-67
2023/10/05 08:26:52;;;;;;;8.40;2.53;;;;;;;;;;4955465;28;20036;-68
2023/10/05 08:29:22;;;;;;;8.75;2.60;;;;;;;;;;4955235;28;20127;-68
2023/10/05 08:31:48;;;;;;;7.60;2.65;;;;;;;;;;4957327;28;20078;-68
2023/10/05 08:34:22;;;;;;;10.85;3.30;;;;;;;;;;4957249;28;20035;-68
2023/10/05 08:36:53;;;;;;;4.75;2.28;;;;;;;;;;4960424;28;20584;-68
2023/10/05 08:39:25;;;;;;;10.02;2.47;;;;;;;;;;4976603;28;20037;-68
2023/10/05 08:41:54;;;;;;;8.23;2.50;;;;;;;;;;4976559;28;20023;-68
2023/10/05 08:44:30;;;;;;;13.70;3.17;;;;;;;;;;4976522;28;20026;-67
2023/10/05 08:46:57;;;;;;;11.57;2.75;;;;;;;;;;4977472;28;20043;-68
2023/10/05 08:49:24;;;;;;;13.00;3.33;;;;;;;;;;4977169;28;20109;-68
2023/10/05 08:51:51;;;;;;;8.23;3.03;;;;;;;;;;4976393;28;20031;-67
2023/10/05 08:54:21;;;;;;;8.05;2.53;;;;;;;;;;4976240;28;20473;-68
2023/10/05 08:56:47;;;;;;;;;;;;;;;;;;4976724;28;20034;-68
2023/10/05 08:59:13;;;;;;;9.00;2.58;;;;;;;;;;4976312;28;19921;-66
2023/10/05 09:01:43;;;;;;;10.05;2.80;;;;;;;;;;4976036;28;20400;-68
2023/10/05 09:06:50;;;;;;;8.70;2.58;;;;;;;;;;4976247;28;20046;-68
2023/10/05 09:09:26;;;;;;;5.80;2.80;;;;;;;;;;4976242;28;20030;-68
2023/10/05 09:11:52;;;;;;;11.43;3.30;;;;;;;;;;4976060;28;20026;-67
2023/10/05 09:14:27;;;;;;;8.85;3.25;;;;;;;;;;4975647;28;20130;-68
2023/10/05 09:17:04;;;;;;;10.63;3.45;;;;;;;;;;4975974;28;20077;-68
2023/10/05 09:19:29;;;;;;;8.50;3.10;;;;;;;;;;4976022;28;20077;-67
2023/10/05 09:22:19;;;;;;;5.10;2.70;;;;;;;;;;4992583;28;20030;-67
2023/10/05 09:24:52;;;;;;;9.35;3.78;;;;;;;;;;4968189;28;20404;-68
2023/10/05 09:27:19;;;;;;;5.78;2.67;;;;;;;;;;4975901;28;20109;-67
2023/10/05 09:29:45;;;;;;;9.55;3.08;;;;;;;;;;4975494;28;20373;-66
2023/10/05 09:32:30;;;;;;;6.82;2.75;;;;;;;;;;4975643;28;20054;-67
2023/10/05 09:34:57;;;;;;;11.73;2.97;;;;;;;;;;4975552;28;20042;-64
2023/10/05 09:37:26;;;;;;;4.85;2.38;;;;;;;;;;4975573;28;20062;-66
2023/10/05 09:39:58;;;;;;;9.05;3.40;;;;;;;;;;4975342;28;20058;-66
2023/10/05 09:42:27;;;;;;;7.88;3.72;;;;;;;;;;4974609;28;20018;-67
2023/10/05 09:44:52;;;;;;;7.05;2.67;;;;;;;;;;4975176;28;20030;-66
2023/10/05 09:47:26;;;;;;;8.32;2.70;;;;;;;;;;4977480;28;20156;-66
2023/10/05 09:49:58;;;;;;;12.55;3.00;;;;;;;;;;4975315;28;20519;-65
2023/10/05 09:52:24;;;;;;;8.18;2.72;;;;;;;;;;4975205;28;20035;-68
2023/10/05 09:54:50;;;;;;;7.63;2.78;;;;;;;;;;4975139;28;20499;-67
2023/10/05 09:57:20;;;;;;;7.40;2.60;;;;;;;;;;4975150;28;20039;-67
2023/10/05 10:00:11;;;;;;;;;;;;;;;;;;4974093;28;20038;-66
2023/10/05 10:02:34;;;;;;;6.45;2.38;;;;;;;;;;4973365;28;20323;-67
2023/10/05 10:05:25;;;;;;;8.82;2.60;;;;;;;;;;4975057;28;20476;-67
2023/10/05 10:07:53;;;;;;;5.13;2.17;;;;;;;;;;4974265;28;20030;-66
2023/10/05 10:10:20;;;;;;;5.75;2.42;;;;;;;;;;4974773;28;20066;-66
2023/10/05 10:12:46;;;;;;;5.22;2.72;;;;;;;;;;4973587;28;20031;-67
2023/10/05 10:15:28;;;;;;;5.47;2.42;;;;;;;;;;4974605;28;20097;-67
2023/10/05 10:18:03;;;;;;;5.97;2.00;;;;;;;;;;4974719;28;20032;-68
2023/10/05 10:20:35;;;;;;;4.95;2.30;;;;;;;;;;4974725;28;20507;-66
2023/10/05 10:23:08;;;;;;;6.57;1.90;;;;;;;;;;4974446;28;20047;-67
2023/10/05 10:25:41;;;;;;;4.55;1.80;;;;;;;;;;4958879;28;20494;-67
2023/10/05 10:28:16;;;;;;;3.40;1.70;;;;;;;;;;4954982;28;20019;-67
2023/10/05 10:31:16;;;;;;;5.28;2.38;;;;;;;;;;4969658;28;20607;-68
2023/10/05 10:33:42;;;;;;;5.93;2.07;;;;;;;;;;4955150;28;20469;-68
2023/10/05 10:36:18;;;;;;;4.25;1.55;;;;;;;;;;4955097;28;20469;-66
2023/10/05 10:38:50;;;;;;;6.32;1.90;;;;;;;;;;4955200;28;20023;-68
2023/10/05 10:41:18;;;;;;;3.88;1.80;;;;;;;;;;4967520;28;20031;-67
2023/10/05 10:43:52;;;;;;;6.55;3.97;;;;;;;;;;4973424;28;20084;-67
2023/10/05 10:46:29;;;;;;;5.30;1.85;;;;;;;;;;4974050;28;20063;-67
2023/10/05 10:48:58;;;;;;;3.72;1.50;;;;;;;;;;4974205;28;20138;-65
2023/10/05 10:51:31;;;;;;;4.65;1.73;;;;;;;;;;4974275;28;20031;-64
2023/10/05 10:53:59;;;;;;;2.90;1.10;;;;;;;;;;4974350;28;20050;-66
2023/10/05 10:56:30;;;;;;;2.95;1.30;;;;;;;;;;4973907;28;20026;-66
2023/10/05 10:58:57;;;;;;;2.13;1.02;;;;;;;;;;4972739;28;20027;-67
2023/10/05 11:01:29;;;;;;;3.03;1.20;;;;;;;;;;4974098;28;20443;-67
2023/10/05 11:04:04;;;;;;;2.42;1.20;;;;;;;;;;4974081;28;20038;-64
2023/10/05 11:06:30;;;;;;;3.63;1.20;;;;;;;;;;4974061;28;20101;-63
2023/10/05 11:09:09;;;;;;;1.83;1.20;;;;;;;;;;4973995;28;20023;-63
2023/10/05 11:11:37;;;;;;;2.72;1.40;;;;;;;;;;4973817;28;20037;-63
2023/10/05 11:14:07;;;;;;;1.88;1.00;;;;;;;;;;4970333;28;20106;-65
2023/10/05 11:16:34;;;;;;;;;;;;;;;;;;4969221;28;20037;-66
2023/10/05 11:19:03;;;;;;;4.07;1.25;;;;;;;;;;4973891;28;20004;-65
2023/10/05 11:21:35;;;;;;;2.00;0.87;;;;;;;;;;4974059;28;20050;-68
2023/10/05 11:24:07;;;;;;;3.70;1.40;;;;;;;;;;4970079;28;20051;-62
2023/10/05 11:26:33;;;;;;;3.00;1.20;;;;;;;;;;4954269;28;20122;-64
2023/10/05 11:29:15;;;;;;;5.28;1.17;;;;;;;;;;4954404;28;20102;-62
2023/10/05 11:31:41;;;;;;;2.72;1.02;;;;;;;;;;4970634;28;20023;-63
2023/10/05 11:34:11;;;;;;;2.08;1.33;;;;;;;;;;4973512;28;20026;-63
2023/10/05 11:36:40;;;;;;;3.30;1.20;;;;;;;;;;4972266;28;20011;-63
2023/10/05 11:39:22;;;;;;;3.47;1.00;;;;;;;;;;4973691;28;20062;-62
2023/10/05 11:41:48;;;;;;;2.75;1.20;;;;;;;;;;4973699;28;20066;-67
2023/10/05 11:44:25;;;;;;;3.35;0.98;;;;;;;;;;4973576;28;20031;-66
2023/10/05 11:46:54;;;;;;;2.30;1.08;;;;;;;;;;4973925;28;20027;-67
2023/10/05 11:49:20;;;;;;;4.35;1.45;;;;;;;;;;4974736;28;20027;-67
2023/10/05 11:51:59;;;;;;;7.07;1.30;;;;;;;;;;4972759;28;20102;-67
2023/10/05 11:54:24;;;;;;;5.35;1.10;;;;;;;;;;4973143;28;20023;-68
2023/10/05 11:56:56;;;;;;;4.45;1.10;;;;;;;;;;4973634;28;20114;-64
2023/10/05 11:59:28;;;;;;;2.90;0.90;;;;;;;;;;4973640;28;20057;-68
2023/10/05 12:01:53;;;;;;;1.83;1.00;;;;;;;;;;4973386;28;20035;-66
2023/10/05 12:04:28;;;;;;;3.17;1.05;;;;;;;;;;4974699;28;20038;-64
2023/10/05 12:07:00;;;;;;;1.67;0.80;;;;;;;;;;4977268;28;20035;-65
2023/10/05 12:09:32;;;;;;;4.55;1.15;;;;;;;;;;4977111;28;20027;-67
2023/10/05 12:12:03;;;;;;;1.75;0.82;;;;;;;;;;4977081;28;20073;-67
2023/10/05 12:14:29;;;;;;;4.35;1.08;;;;;;;;;;4977147;28;20419;-66
2023/10/05 12:16:56;;;;;;;1.73;0.90;;;;;;;;;;4976984;28;20547;-67
2023/10/05 12:19:28;;;;;;;5.28;0.98;;;;;;;;;;4977115;28;20055;-66
2023/10/05 12:21:59;;;;;;;4.13;1.30;;;;;;;;;;4976894;28;20023;-69
2023/10/05 12:24:26;;;;;;;4.03;1.20;;;;;;;;;;4964507;28;20055;-67
2023/10/05 12:26:52;;;;;;;2.22;0.80;;;;;;;;;;4974534;28;20117;-66
2023/10/05 12:29:18;;;;;;;2.20;0.80;;;;;;;;;;4976563;28;20113;-66
2023/10/05 12:31:47;;;;;;;7.75;1.42;;;;;;;;;;4976579;28;20023;-68
2023/10/05 12:34:16;;;;;;;3.63;1.30;;;;;;;;;;4976800;28;20026;-68
2023/10/05 12:36:49;;;;;;;5.68;1.02;;;;;;;;;;4975538;28;20399;-69
2023/10/05 12:39:26;;;;;;;2.90;1.02;;;;;;;;;;4976447;28;20015;-65
2023/10/05 12:41:52;;;;;;;3.38;1.30;;;;;;;;;;4976567;28;20105;-66
2023/10/05 12:44:17;;;;;;;3.10;1.30;;;;;;;;;;4975212;28;20165;-65
2023/10/05 12:46:47;;;;;;;4.68;0.93;;;;;;;;;;4976388;28;20023;-63
2023/10/05 12:49:14;;;;;;;1.20;0.80;;;;;;;;;;4976520;28;20492;-64
2023/10/05 12:51:41;;;;;;;2.13;0.93;;;;;;;;;;4964942;28;20027;-64
2023/10/05 12:54:49;;;;;;;3.92;0.95;;;;;;;;;;4956039;29;20080;-63
2023/10/05 12:56:57;;;;;;;2.25;0.98;;;;;;;;;;4972054;28;20137;-64
2023/10/05 12:59:24;;;;;;;3.03;1.00;;;;;;;;;;4975650;28;20034;-64
2023/10/05 13:01:49;;;;;;;8.20;1.10;;;;;;;;;;4975848;28;20035;-64
2023/10/05 13:04:16;;;;;;;3.42;1.10;;;;;;;;;;4976342;28;20153;-63
2023/10/05 13:06:44;;;;;;;5.25;1.30;;;;;;;;;;4975780;28;20077;-63
2023/10/05 13:09:13;;;;;;;2.47;0.77;;;;;;;;;;4974547;28;20161;-65
2023/10/05 13:11:39;;;;;;;3.70;0.70;;;;;;;;;;4975437;28;20496;-64
2023/10/05 13:14:14;;;;;;;3.05;1.00;;;;;;;;;;4975357;28;20062;-64
2023/10/05 13:16:39;;;;;;;4.47;0.90;;;;;;;;;;4973557;28;20038;-63
2023/10/05 13:19:14;;;;;;;3.22;0.75;;;;;;;;;;4974521;28;20027;-63
2023/10/05 13:21:42;;;;;;;5.88;0.95;;;;;;;;;;4974511;28;20030;-64
2023/10/05 13:24:11;;;;;;;2.42;0.90;;;;;;;;;;4984113;28;20045;-64
2023/10/05 13:26:37;;;;;;;4.05;1.23;;;;;;;;;;4971669;28;20034;-64
2023/10/05 13:29:07;;;;;;;4.50;0.90;;;;;;;;;;4975181;28;20026;-63
2023/10/05 13:31:32;;;;;;;;;;;;;;;;;;4976422;28;20114;-65
2023/10/05 13:33:59;;;;;;;3.97;0.90;;;;;;;;;;4975849;28;19953;-67
2023/10/05 13:36:26;;;;;;;6.03;1.17;;;;;;;;;;4975503;28;20138;-65
2023/10/05 13:38:54;;;;;;;4.43;1.20;;;;;;;;;;4975864;28;20043;-64
2023/10/05 13:41:20;;;;;;;4.57;1.30;;;;;;;;;;4975654;28;20066;-64
2023/10/05 13:43:49;;;;;;;4.40;0.95;;;;;;;;;;4975459;28;20042;-67
2023/10/05 13:46:16;;;;;;;4.97;1.10;;;;;;;;;;4975684;28;20094;-64
2023/10/05 13:48:43;;;;;;;5.40;1.20;;;;;;;;;;4975580;28;20018;-68
2023/10/05 13:51:11;;;;;;;3.08;0.80;;;;;;;;;;4975462;28;20440;-64
2023/10/05 13:53:44;;;;;;;3.28;0.93;;;;;;;;;;4975551;28;20385;-63
2023/10/05 13:56:16;;;;;;;4.20;1.15;;;;;;;;;;4975715;28;20059;-63
2023/10/05 13:58:47;;;;;;;4.38;1.15;;;;;;;;;;4975433;28;20023;-63
2023/10/05 14:01:16;;;;;;;5.10;1.33;;;;;;;;;;4975448;28;20113;-63
2023/10/05 14:03:45;;;;;;;5.65;1.00;;;;;;;;;;4975069;28;20150;-62
2023/10/05 14:06:14;;;;;;;7.17;1.53;;;;;;;;;;4975021;28;20027;-63
2023/10/05 14:08:43;;;;;;;4.30;1.42;;;;;;;;;;4975406;28;20293;-63
2023/10/05 14:11:10;;;;;;;4.75;1.13;;;;;;;;;;4975215;28;20042;-63
2023/10/05 14:13:35;;;;;;;6.35;1.20;;;;;;;;;;4975213;28;20042;-63
2023/10/05 14:16:01;;;;;;;8.02;1.20;;;;;;;;;;4975288;28;20027;-65
2023/10/05 14:18:30;;;;;;;4.68;1.52;;;;;;;;;;4975198;28;20030;-64
2023/10/05 14:20:56;;;;;;;3.80;1.20;;;;;;;;;;4974466;28;20086;-65
2023/10/05 14:23:24;;;;;;;7.88;1.45;;;;;;;;;;4982197;28;20074;-63
2023/10/05 14:25:50;;;;;;;5.10;1.08;;;;;;;;;;4978488;28;20101;-63
2023/10/05 14:28:18;;;;;;;8.63;1.10;;;;;;;;;;4974700;28;20476;-63
2023/10/05 14:30:49;;;;;;;4.07;0.95;;;;;;;;;;4974919;28;20022;-63
2023/10/05 14:33:22;;;;;;;3.28;1.00;;;;;;;;;;4974883;28;20030;-63
2023/10/05 14:35:50;;;;;;;4.03;1.23;;;;;;;;;;4974755;28;20045;-63
2023/10/05 14:38:17;;;;;;;2.47;1.15;;;;;;;;;;4974785;28;20081;-63
2023/10/05 14:40:49;;;;;;;8.27;1.88;;;;;;;;;;4974395;28;20031;-63
2023/10/05 14:43:24;;;;;;;5.57;0.85;;;;;;;;;;4974817;28;20023;-63
2023/10/05 14:45:52;;;;;;;2.95;0.88;;;;;;;;;;4974657;28;20109;-63
2023/10/05 14:48:18;;;;;;;6.38;1.00;;;;;;;;;;4974387;28;20057;-64
2023/10/05 14:50:44;;;;;;;4.18;1.17;;;;;;;;;;4974444;28;20027;-64
2023/10/05 14:53:11;;;;;;;4.00;1.15;;;;;;;;;;4974313;28;20022;-64
2023/10/05 14:55:45;;;;;;;4.72;1.20;;;;;;;;;;4974255;28;20042;-63
2023/10/05 14:58:13;;;;;;;3.75;0.98;;;;;;;;;;4974397;28;20023;-65
2023/10/05 15:00:39;;;;;;;4.63;1.20;;;;;;;;;;4974370;28;20082;-66
2023/10/05 15:03:05;;;;;;;3.33;1.05;;;;;;;;;;4974124;28;20035;-64
2023/10/05 15:05:30;;;;;;;5.13;1.00;;;;;;;;;;4972939;28;20034;-66
2023/10/05 15:07:58;;;;;;;4.07;1.02;;;;;;;;;;4974288;28;20030;-64
2023/10/05 15:10:24;;;;;;;3.50;1.10;;;;;;;;;;4973928;28;20380;-68
2023/10/05 15:12:50;;;;;;;5.68;1.13;;;;;;;;;;4974320;28;20034;-67
2023/10/05 15:15:17;;;;;;;3.28;0.90;;;;;;;;;;4974380;28;20372;-68
2023/10/05 15:17:48;;;;;;;4.05;1.00;;;;;;;;;;4974079;28;20455;-68
2023/10/05 15:20:16;;;;;;;3.08;0.93;;;;;;;;;;4974110;28;20033;-67